Ely Municipal Airport Ely US
ICAO: KELO
IATA: ELO
Category: Medium
Scheduled Services: No

Elevation: 1456 ft
TransAlt. 18000 ft.

Airport Communications:
AWOS 3:132.025
PRINCETON RDO:109.6
CTAF/UNICOM:122.8

KELO Zoom In..

Runways:

(A) RW 12 length 5596 ft width 100 ft
---- / hdg 120

(B) RW 30 length 5596 ft width 100 ft
---- / hdg 300

Location; KELO
Day. 25 / Time. 01.35 Zulu
* Altimeter: 29.82
* Temperature: -01° c. -30.2°f.
* Wind from: 200° Speed 03 kn.
Dewpoint: -01° c.
Visibility: 10 Statute Miles.
Clouds: Scattered 800 ft.
Clouds: Overcast 1300 ft.

KELO 250135Z AUTO 20003KT 10SM SCT008 OVC013 M01/M01 A2982 RMK AO2

Going to: --> -->


Wind From 200°
Speed 03 kn.

 
 
jpsmedia worldairports.se 2020   terms of use